createdAt,value
2018-05-29T00:00:19.985Z,22.38
2018-05-29T00:01:26.504Z,22.49
2018-05-29T00:02:31.006Z,22.38
2018-05-29T00:03:36.533Z,22.38
2018-05-29T00:04:42.049Z,22.43
2018-05-29T00:05:47.577Z,22.41
2018-05-29T00:06:53.108Z,22.39
2018-05-29T00:07:59.625Z,22.34
2018-05-29T00:09:04.129Z,22.37
2018-05-29T00:10:09.640Z,22.31
2018-05-29T00:11:15.181Z,22.29
2018-05-29T00:12:20.701Z,22.25
2018-05-29T00:13:26.209Z,22.22
2018-05-29T00:14:32.730Z,22.27
2018-05-29T00:15:37.247Z,22.23
2018-05-29T00:16:42.767Z,22.25
2018-05-29T00:17:48.273Z,22.19
2018-05-29T00:18:53.802Z,22.25
2018-05-29T00:19:59.320Z,22.10
2018-05-29T00:21:05.910Z,22.09
2018-05-29T00:22:10.359Z,22.10
2018-05-29T00:23:16.001Z,22.06
2018-05-29T00:24:21.391Z,21.97
2018-05-29T00:25:26.937Z,22.07
2018-05-29T00:26:32.442Z,22.06
2018-05-29T00:27:38.967Z,21.98
2018-05-29T00:28:43.466Z,22.01
2018-05-29T00:29:48.997Z,21.98
2018-05-29T00:30:54.509Z,21.91
2018-05-29T00:32:00.035Z,21.88
2018-05-29T00:33:05.537Z,21.81
2018-05-29T00:34:12.077Z,21.78
2018-05-29T00:35:16.581Z,21.76
2018-05-29T00:36:22.100Z,21.78
2018-05-29T00:37:27.617Z,21.74
2018-05-29T00:38:33.140Z,21.61
2018-05-29T00:39:38.673Z,21.63
2018-05-29T00:40:45.184Z,21.64
2018-05-29T00:41:49.689Z,21.69
2018-05-29T00:42:55.217Z,21.66
2018-05-29T00:44:00.766Z,21.63
2018-05-29T00:45:06.269Z,21.61
2018-05-29T00:46:11.768Z,21.57
2018-05-29T00:47:18.310Z,21.59
2018-05-29T00:48:22.811Z,21.59
2018-05-29T00:49:28.329Z,21.59
2018-05-29T00:50:33.850Z,21.54
2018-05-29T00:51:39.365Z,21.51
2018-05-29T00:52:44.884Z,21.51
2018-05-29T00:53:51.419Z,21.54
2018-05-29T00:54:55.915Z,21.48
2018-05-29T00:56:01.446Z,21.51
2018-05-29T00:57:06.951Z,21.48
2018-05-29T00:58:12.488Z,21.44
2018-05-29T00:59:17.992Z,21.41
2018-05-29T01:00:24.526Z,21.46
2018-05-29T01:01:29.048Z,21.32
2018-05-29T01:02:34.546Z,21.34
2018-05-29T01:03:40.065Z,21.35
2018-05-29T01:04:45.580Z,21.32
2018-05-29T01:05:51.138Z,21.41
2018-05-29T01:06:57.666Z,21.34
2018-05-29T01:08:02.138Z,21.34
2018-05-29T01:09:07.668Z,21.32
2018-05-29T01:10:13.177Z,21.30
2018-05-29T01:11:18.706Z,21.24
2018-05-29T01:12:24.221Z,21.21
2018-05-29T01:13:30.757Z,21.20
2018-05-29T01:14:35.256Z,21.24
2018-05-29T01:15:40.785Z,21.21
2018-05-29T01:16:46.295Z,21.19
2018-05-29T01:17:51.810Z,21.24
2018-05-29T01:18:57.333Z,21.20
2018-05-29T01:20:03.859Z,21.20
2018-05-29T01:21:08.360Z,21.09
2018-05-29T01:22:13.879Z,21.16
2018-05-29T01:23:19.409Z,21.08
2018-05-29T01:24:24.915Z,21.05
2018-05-29T01:25:30.476Z,21.04
2018-05-29T01:26:36.961Z,21.05
2018-05-29T01:27:41.478Z,21.02
2018-05-29T01:28:46.990Z,21.09
2018-05-29T01:29:52.508Z,21.05
2018-05-29T01:30:58.025Z,20.95
2018-05-29T01:32:03.538Z,20.98
2018-05-29T01:33:10.076Z,20.91
2018-05-29T01:34:14.591Z,20.87
2018-05-29T01:35:20.102Z,20.95
2018-05-29T01:36:25.625Z,20.86
2018-05-29T01:37:31.137Z,20.89
2018-05-29T01:38:36.672Z,20.89
2018-05-29T01:39:43.182Z,20.89
2018-05-29T01:40:47.696Z,20.90
2018-05-29T01:41:53.225Z,20.96
2018-05-29T01:42:58.729Z,20.91
2018-05-29T01:44:04.256Z,20.87
2018-05-29T01:45:09.780Z,20.79
2018-05-29T01:46:16.301Z,20.83
2018-05-29T01:47:20.799Z,20.80
2018-05-29T01:48:26.333Z,20.77
2018-05-29T01:49:31.835Z,20.86
2018-05-29T01:50:37.355Z,20.84
2018-05-29T01:51:42.874Z,20.76
2018-05-29T01:52:49.408Z,20.76
2018-05-29T01:53:53.927Z,20.72
2018-05-29T01:54:59.434Z,20.69
2018-05-29T01:56:05.013Z,20.72
2018-05-29T01:57:10.474Z,20.77
2018-05-29T01:58:15.985Z,20.69
2018-05-29T01:59:22.513Z,20.62
2018-05-29T02:00:27.017Z,20.69
2018-05-29T02:01:32.542Z,20.65
2018-05-29T02:02:38.067Z,20.66
2018-05-29T02:03:43.581Z,20.62
2018-05-29T02:04:49.103Z,20.69
2018-05-29T02:05:55.623Z,20.64
2018-05-29T02:07:00.123Z,20.65
2018-05-29T02:08:05.638Z,20.64
2018-05-29T02:09:11.155Z,20.64
2018-05-29T02:10:16.679Z,20.64
2018-05-29T02:11:22.211Z,20.65
2018-05-29T02:12:28.736Z,20.68
2018-05-29T02:13:33.228Z,20.68
2018-05-29T02:14:38.751Z,20.62
2018-05-29T02:15:44.271Z,20.64
2018-05-29T02:16:49.793Z,20.54
2018-05-29T02:17:55.308Z,20.58
2018-05-29T02:19:01.838Z,20.50
2018-05-29T02:20:06.339Z,20.54
2018-05-29T02:21:11.894Z,20.49
2018-05-29T02:22:17.381Z,20.51
2018-05-29T02:23:22.923Z,20.41
2018-05-29T02:24:28.422Z,20.41
2018-05-29T02:25:34.957Z,20.41
2018-05-29T02:26:39.446Z,20.34
2018-05-29T02:27:44.987Z,20.28
2018-05-29T02:28:51.645Z,20.33
2018-05-29T02:29:56.005Z,20.31
2018-05-29T02:31:01.529Z,20.28
2018-05-29T02:32:08.057Z,20.18
2018-05-29T02:33:12.551Z,20.28
2018-05-29T02:34:18.077Z,20.13
2018-05-29T02:35:23.591Z,20.10
2018-05-29T02:36:29.112Z,20.15
2018-05-29T02:37:34.623Z,20.12
2018-05-29T02:38:41.157Z,20.23
2018-05-29T02:39:45.675Z,20.20
2018-05-29T02:40:51.196Z,20.15
2018-05-29T02:41:56.706Z,20.20
2018-05-29T02:43:02.217Z,20.13
2018-05-29T02:44:07.738Z,20.13
2018-05-29T02:45:14.263Z,20.16
2018-05-29T02:46:18.777Z,20.18
2018-05-29T02:47:24.290Z,20.16
2018-05-29T02:48:29.891Z,20.18
2018-05-29T02:49:35.334Z,20.13
2018-05-29T02:50:40.913Z,20.12
2018-05-29T02:51:47.375Z,20.10
2018-05-29T02:52:51.872Z,20.16
2018-05-29T02:53:57.405Z,20.20
2018-05-29T02:55:02.922Z,20.05
2018-05-29T02:56:08.433Z,20.21
2018-05-29T02:57:13.946Z,20.15
2018-05-29T02:58:20.474Z,20.23
2018-05-29T02:59:25.002Z,20.21
2018-05-29T03:00:30.495Z,20.21
2018-05-29T03:01:36.015Z,20.10
2018-05-29T03:02:41.541Z,20.12
2018-05-29T03:03:47.050Z,20.18
2018-05-29T03:04:53.583Z,20.21
2018-05-29T03:05:58.087Z,20.13
2018-05-29T03:07:03.606Z,20.13
2018-05-29T03:08:09.129Z,20.15
2018-05-29T03:09:14.644Z,20.10
2018-05-29T03:10:20.166Z,20.08
2018-05-29T03:11:26.688Z,20.09
2018-05-29T03:12:31.200Z,20.06
2018-05-29T03:13:36.710Z,20.00
2018-05-29T03:14:42.221Z,20.00
2018-05-29T03:15:47.741Z,19.94
2018-05-29T03:16:53.275Z,19.94
2018-05-29T03:17:59.796Z,19.98
2018-05-29T03:19:04.313Z,19.94
2018-05-29T03:20:09.814Z,19.94
2018-05-29T03:21:15.347Z,19.98
2018-05-29T03:22:20.852Z,19.94
2018-05-29T03:23:26.373Z,19.88
2018-05-29T03:24:32.896Z,19.80
2018-05-29T03:25:37.407Z,19.90
2018-05-29T03:26:42.923Z,19.84
2018-05-29T03:27:48.457Z,19.91
2018-05-29T03:28:53.969Z,19.84
2018-05-29T03:29:59.486Z,19.91
2018-05-29T03:31:06.008Z,19.90
2018-05-29T03:32:10.510Z,19.88
2018-05-29T03:33:16.019Z,19.84
2018-05-29T03:34:21.586Z,19.86
2018-05-29T03:35:27.073Z,19.87
2018-05-29T03:36:32.582Z,19.83
2018-05-29T03:37:39.119Z,19.84
2018-05-29T03:38:43.623Z,19.86
2018-05-29T03:39:49.141Z,19.87
2018-05-29T03:40:54.654Z,19.84
2018-05-29T03:42:00.170Z,19.87
2018-05-29T03:43:05.691Z,19.84
2018-05-29T03:44:12.216Z,19.84
2018-05-29T03:45:16.713Z,19.88
2018-05-29T03:46:22.241Z,19.90
2018-05-29T03:47:27.759Z,19.90
2018-05-29T03:48:33.272Z,19.86
2018-05-29T03:49:38.802Z,19.87
2018-05-29T03:50:45.314Z,19.91
2018-05-29T03:51:49.827Z,19.88
2018-05-29T03:52:55.345Z,19.87
2018-05-29T03:54:00.858Z,19.94
2018-05-29T03:55:06.372Z,19.88
2018-05-29T03:56:11.896Z,19.90
2018-05-29T03:57:18.440Z,19.83
2018-05-29T03:58:22.935Z,19.83
2018-05-29T03:59:28.455Z,19.80
2018-05-29T04:00:33.963Z,19.80
2018-05-29T04:01:39.488Z,19.80
2018-05-29T04:02:45.002Z,19.80
2018-05-29T04:03:51.525Z,19.80
2018-05-29T04:04:56.043Z,19.80
2018-05-29T04:06:01.545Z,19.80
2018-05-29T04:07:07.065Z,19.87
2018-05-29T04:08:12.586Z,19.88
2018-05-29T04:09:18.118Z,19.88
2018-05-29T04:10:24.640Z,19.88
2018-05-29T04:11:29.158Z,19.94
2018-05-29T04:12:34.652Z,19.97
2018-05-29T04:13:40.181Z,19.90
2018-05-29T04:14:45.685Z,19.95
2018-05-29T04:15:51.432Z,19.95
2018-05-29T04:16:57.739Z,19.94
2018-05-29T04:18:02.250Z,20.02
2018-05-29T04:19:07.820Z,19.97
2018-05-29T04:20:13.277Z,20.00
2018-05-29T04:21:18.822Z,20.02
2018-05-29T04:22:24.313Z,20.05
2018-05-29T04:23:30.849Z,20.09
2018-05-29T04:24:35.345Z,20.08
2018-05-29T04:25:40.867Z,20.03
2018-05-29T04:26:46.383Z,20.13
2018-05-29T04:27:51.917Z,20.20
2018-05-29T04:28:57.416Z,20.13
2018-05-29T04:30:03.950Z,20.10
2018-05-29T04:31:08.447Z,20.20
2018-05-29T04:32:13.975Z,20.16
2018-05-29T04:33:19.488Z,20.12
2018-05-29T04:34:25.008Z,20.23
2018-05-29T04:35:30.531Z,20.15
2018-05-29T04:36:37.052Z,20.21
2018-05-29T04:37:41.565Z,20.21
2018-05-29T04:38:47.074Z,20.21
2018-05-29T04:39:52.588Z,20.24
2018-05-29T04:40:58.111Z,20.35
2018-05-29T04:42:03.646Z,20.34
2018-05-29T04:43:10.167Z,20.33
2018-05-29T04:44:14.671Z,20.35
2018-05-29T04:45:20.185Z,20.38
2018-05-29T04:46:25.702Z,20.38
2018-05-29T04:47:31.247Z,20.42
2018-05-29T04:48:36.738Z,20.43
2018-05-29T04:49:43.272Z,20.50
2018-05-29T04:50:47.770Z,20.46
2018-05-29T04:51:53.328Z,20.50
2018-05-29T04:52:58.801Z,20.53
2018-05-29T04:54:04.325Z,20.58
2018-05-29T04:55:09.841Z,20.53
2018-05-29T04:56:16.369Z,20.64
2018-05-29T04:57:20.889Z,20.58
2018-05-29T04:58:26.401Z,20.65
2018-05-29T04:59:31.917Z,20.65
2018-05-29T05:00:37.437Z,20.65
2018-05-29T05:01:42.952Z,20.65
2018-05-29T05:02:49.477Z,20.76
2018-05-29T05:03:53.984Z,20.69
2018-05-29T05:04:59.504Z,20.68
2018-05-29T05:06:05.018Z,20.81
2018-05-29T05:07:10.539Z,20.77
2018-05-29T05:08:16.070Z,20.81
2018-05-29T05:09:22.588Z,20.80
2018-05-29T05:10:27.101Z,20.72
2018-05-29T05:11:32.620Z,20.83
2018-05-29T05:12:38.130Z,20.77
2018-05-29T05:13:43.658Z,20.93
2018-05-29T05:14:49.160Z,20.87
2018-05-29T05:15:55.704Z,20.87
2018-05-29T05:17:00.223Z,20.90
2018-05-29T05:18:05.727Z,20.95
2018-05-29T05:19:11.235Z,20.91
2018-05-29T05:20:16.797Z,20.93
2018-05-29T05:21:22.278Z,20.90
2018-05-29T05:22:28.804Z,20.96
2018-05-29T05:23:33.357Z,21.02
2018-05-29T05:24:38.842Z,21.06
2018-05-29T05:25:44.337Z,21.17
2018-05-29T05:26:49.861Z,21.11
2018-05-29T05:27:55.386Z,21.09
2018-05-29T05:29:01.918Z,21.17
2018-05-29T05:30:06.475Z,21.21
2018-05-29T05:31:11.940Z,21.24
2018-05-29T05:32:17.468Z,21.21
2018-05-29T05:33:22.983Z,21.29
2018-05-29T05:34:28.486Z,21.30
2018-05-29T05:35:35.025Z,21.19
2018-05-29T05:36:39.528Z,21.41
2018-05-29T05:37:45.039Z,21.39
2018-05-29T05:38:50.567Z,21.34
2018-05-29T05:39:56.084Z,21.30
2018-05-29T05:41:01.602Z,21.34
2018-05-29T05:42:08.129Z,21.42
2018-05-29T05:43:12.649Z,21.34
2018-05-29T05:44:18.159Z,21.41
2018-05-29T05:45:23.672Z,21.48
2018-05-29T05:46:29.195Z,21.42
2018-05-29T05:47:34.715Z,21.56
2018-05-29T05:48:41.255Z,21.46
2018-05-29T05:49:45.744Z,21.39
2018-05-29T05:50:51.264Z,21.56
2018-05-29T05:51:56.779Z,21.61
2018-05-29T05:53:02.303Z,21.57
2018-05-29T05:54:07.819Z,21.61
2018-05-29T05:55:14.350Z,21.64
2018-05-29T05:56:18.863Z,21.71
2018-05-29T05:57:24.398Z,21.74
2018-05-29T05:58:29.934Z,21.66
2018-05-29T05:59:35.407Z,21.69
2018-05-29T06:00:40.931Z,21.82
2018-05-29T06:01:47.479Z,21.83
2018-05-29T06:02:51.976Z,21.85
2018-05-29T06:03:57.484Z,21.85
2018-05-29T06:05:03.002Z,21.90
2018-05-29T06:06:08.522Z,21.92
2018-05-29T06:07:14.045Z,21.98
2018-05-29T06:08:20.574Z,22.01
2018-05-29T06:09:25.088Z,22.04
2018-05-29T06:10:30.600Z,22.06
2018-05-29T06:11:36.125Z,22.01
2018-05-29T06:12:41.652Z,22.06
2018-05-29T06:13:47.159Z,22.09
2018-05-29T06:14:53.676Z,22.10
2018-05-29T06:15:58.190Z,22.20
2018-05-29T06:17:03.722Z,22.13
2018-05-29T06:18:09.229Z,22.17
2018-05-29T06:19:14.763Z,22.17
2018-05-29T06:20:20.262Z,22.19
2018-05-29T06:21:26.794Z,22.28
2018-05-29T06:22:31.304Z,22.32
2018-05-29T06:23:36.828Z,22.34
2018-05-29T06:24:42.344Z,22.37
2018-05-29T06:25:47.852Z,22.38
2018-05-29T06:26:53.380Z,22.37
2018-05-29T06:27:59.917Z,22.35
2018-05-29T06:29:04.425Z,22.44
2018-05-29T06:30:09.933Z,22.38
2018-05-29T06:31:15.448Z,22.50
2018-05-29T06:32:20.980Z,22.52
2018-05-29T06:33:26.499Z,22.54
2018-05-29T06:34:33.017Z,22.57
2018-05-29T06:35:37.532Z,22.68
2018-05-29T06:36:43.054Z,22.72
2018-05-29T06:37:48.565Z,22.71
2018-05-29T06:38:54.084Z,22.77
2018-05-29T06:39:59.615Z,22.78
2018-05-29T06:41:06.218Z,22.87
2018-05-29T06:42:10.724Z,22.97
2018-05-29T06:43:16.195Z,22.97
2018-05-29T06:44:21.674Z,22.94
2018-05-29T06:45:27.198Z,23.08
2018-05-29T06:46:32.719Z,23.07
2018-05-29T06:47:39.246Z,23.17
2018-05-29T06:48:43.752Z,23.20
2018-05-29T06:49:49.284Z,23.23
2018-05-29T06:50:54.795Z,23.20
2018-05-29T06:52:00.322Z,23.34
2018-05-29T06:53:05.831Z,23.27
2018-05-29T06:54:12.369Z,23.29
2018-05-29T06:55:16.874Z,23.38
2018-05-29T06:56:22.389Z,23.43
2018-05-29T06:57:27.901Z,23.46
2018-05-29T06:58:33.428Z,23.42
2018-05-29T06:59:38.966Z,23.53
2018-05-29T07:00:45.474Z,23.50
2018-05-29T07:01:49.982Z,23.58
2018-05-29T07:02:55.511Z,23.64
2018-05-29T07:04:01.096Z,23.68
2018-05-29T07:05:06.541Z,23.80
2018-05-29T07:06:12.061Z,23.80
2018-05-29T07:07:18.599Z,23.77
2018-05-29T07:08:23.115Z,23.82
2018-05-29T07:09:28.625Z,23.89
2018-05-29T07:10:34.147Z,23.83
2018-05-29T07:11:39.702Z,23.94
2018-05-29T07:12:45.185Z,23.95
2018-05-29T07:13:51.714Z,24.05
2018-05-29T07:14:56.263Z,24.02
2018-05-29T07:16:01.746Z,24.05
2018-05-29T07:17:07.263Z,24.02
2018-05-29T07:18:12.786Z,24.20
2018-05-29T07:19:18.302Z,24.16
2018-05-29T07:20:24.842Z,24.31
2018-05-29T07:21:29.351Z,24.31
2018-05-29T07:22:34.876Z,24.41
2018-05-29T07:23:40.373Z,24.37
2018-05-29T07:24:45.933Z,24.44
2018-05-29T07:25:51.431Z,24.47
2018-05-29T07:26:57.950Z,24.47
2018-05-29T07:28:02.462Z,24.52
2018-05-29T07:29:07.986Z,24.61
2018-05-29T07:30:13.495Z,24.57
2018-05-29T07:31:19.023Z,24.60
2018-05-29T07:32:24.543Z,24.68
2018-05-29T07:33:31.069Z,24.77
2018-05-29T07:34:35.578Z,24.83
2018-05-29T07:35:41.102Z,24.80
2018-05-29T07:36:46.628Z,24.82
2018-05-29T07:37:52.147Z,24.91
2018-05-29T07:38:57.715Z,24.98
2018-05-29T07:40:04.190Z,25.01
2018-05-29T07:41:08.713Z,24.97
2018-05-29T07:42:14.210Z,25.00
2018-05-29T07:43:19.783Z,25.16
2018-05-29T07:44:25.332Z,25.17
2018-05-29T07:45:30.786Z,25.13
2018-05-29T07:46:37.316Z,25.19
2018-05-29T07:47:41.881Z,25.25
2018-05-29T07:48:47.338Z,25.28
2018-05-29T07:49:52.881Z,25.31
2018-05-29T07:50:58.391Z,25.32
2018-05-29T07:52:03.942Z,25.32
2018-05-29T07:53:10.446Z,25.43
2018-05-29T07:54:14.974Z,25.42
2018-05-29T07:55:20.472Z,25.43
2018-05-29T07:56:25.990Z,25.44
2018-05-29T07:57:31.513Z,25.54
2018-05-29T07:58:37.036Z,25.57
2018-05-29T07:59:43.553Z,25.56
2018-05-29T08:00:48.069Z,25.57
2018-05-29T08:01:53.599Z,25.53
2018-05-29T08:02:59.111Z,25.69
2018-05-29T08:04:04.637Z,25.68
2018-05-29T08:05:10.154Z,25.74
2018-05-29T08:06:16.680Z,25.84
2018-05-29T08:07:21.195Z,25.84
2018-05-29T08:08:26.741Z,25.87
2018-05-29T08:09:32.238Z,25.87
2018-05-29T08:10:37.803Z,25.90
2018-05-29T08:11:43.282Z,25.97
2018-05-29T08:12:49.821Z,25.97
2018-05-29T08:13:54.312Z,26.01
2018-05-29T08:14:59.836Z,26.11
2018-05-29T08:16:05.373Z,26.11
2018-05-29T08:17:10.996Z,26.05
2018-05-29T08:18:16.411Z,26.18
2018-05-29T08:19:22.935Z,26.11
2018-05-29T08:20:27.478Z,26.11
2018-05-29T08:21:32.969Z,26.18
2018-05-29T08:22:38.484Z,26.24
2018-05-29T08:23:44.003Z,26.28
2018-05-29T08:24:49.537Z,26.32
2018-05-29T08:25:56.063Z,26.43
2018-05-29T08:27:00.575Z,26.52
2018-05-29T08:28:06.100Z,26.44
2018-05-29T08:29:11.622Z,26.46
2018-05-29T08:30:17.131Z,26.58
2018-05-29T08:31:22.655Z,26.62
2018-05-29T08:32:29.199Z,26.55
2018-05-29T08:33:33.692Z,26.69
2018-05-29T08:34:39.216Z,26.68
2018-05-29T08:35:44.740Z,26.74
2018-05-29T08:36:50.268Z,26.80
2018-05-29T08:37:55.790Z,26.79
2018-05-29T08:39:02.323Z,26.74
2018-05-29T08:40:06.842Z,26.80
2018-05-29T08:41:12.352Z,26.87
2018-05-29T08:42:17.875Z,26.91
2018-05-29T08:43:23.398Z,26.87
2018-05-29T08:44:29.076Z,26.96
2018-05-29T08:45:35.445Z,26.95
2018-05-29T08:46:39.960Z,26.91
2018-05-29T08:47:45.485Z,27.04
2018-05-29T08:48:50.996Z,27.11
2018-05-29T08:49:56.535Z,27.13
2018-05-29T08:51:02.037Z,27.13
2018-05-29T08:52:08.609Z,27.14
2018-05-29T08:53:13.083Z,27.20
2018-05-29T08:54:18.615Z,27.29
2018-05-29T08:55:24.126Z,27.31
2018-05-29T08:56:29.661Z,27.39
2018-05-29T08:57:35.171Z,27.43
2018-05-29T08:58:41.711Z,27.39
2018-05-29T08:59:46.220Z,27.39
2018-05-29T09:00:51.738Z,27.54
2018-05-29T09:01:57.257Z,27.51
2018-05-29T09:03:02.807Z,27.59
2018-05-29T09:04:08.477Z,27.66
2018-05-29T09:05:14.842Z,27.64
2018-05-29T09:06:19.352Z,27.70
2018-05-29T09:07:24.863Z,27.70
2018-05-29T09:08:30.405Z,27.77
2018-05-29T09:09:35.904Z,27.77
2018-05-29T09:10:41.451Z,27.80
2018-05-29T09:11:48.008Z,27.76
2018-05-29T09:12:52.485Z,27.80
2018-05-29T09:13:58.000Z,27.82
2018-05-29T09:15:03.512Z,27.85
2018-05-29T09:16:09.048Z,27.84
2018-05-29T09:17:14.622Z,27.92
2018-05-29T09:18:21.105Z,28.03
2018-05-29T09:19:25.634Z,27.99
2018-05-29T09:20:31.125Z,27.98
2018-05-29T09:21:36.658Z,28.07
2018-05-29T09:22:42.170Z,28.07
2018-05-29T09:23:47.690Z,28.13
2018-05-29T09:24:54.233Z,28.14
2018-05-29T09:25:58.808Z,28.22
2018-05-29T09:27:04.282Z,28.22
2018-05-29T09:28:09.803Z,28.28
2018-05-29T09:29:15.303Z,28.26
2018-05-29T09:30:20.825Z,28.26
2018-05-29T09:31:27.360Z,28.26
2018-05-29T09:32:31.874Z,28.31
2018-05-29T09:33:37.392Z,28.29
2018-05-29T09:34:42.932Z,28.33
2018-05-29T09:35:48.481Z,28.33
2018-05-29T09:36:53.973Z,28.38
2018-05-29T09:38:00.495Z,28.41
2018-05-29T09:39:05.007Z,28.41
2018-05-29T09:40:10.540Z,28.51
2018-05-29T09:41:16.054Z,28.63
2018-05-29T09:42:21.573Z,28.59
2018-05-29T09:43:27.103Z,28.69
2018-05-29T09:44:33.631Z,28.70
2018-05-29T09:45:38.148Z,28.63
2018-05-29T09:46:43.719Z,28.66
2018-05-29T09:47:49.195Z,28.65
2018-05-29T09:48:54.721Z,28.70
2018-05-29T09:50:00.237Z,28.81
2018-05-29T09:51:06.778Z,28.82
2018-05-29T09:52:11.287Z,28.91
2018-05-29T09:53:16.815Z,28.96
2018-05-29T09:54:22.331Z,29.04
2018-05-29T09:55:27.846Z,28.95
2018-05-29T09:56:33.368Z,29.07
2018-05-29T09:57:39.902Z,29.07
2018-05-29T09:58:44.408Z,29.10
2018-05-29T09:59:49.945Z,29.15
2018-05-29T10:00:55.458Z,29.08
2018-05-29T10:02:00.982Z,29.13
2018-05-29T10:03:06.521Z,29.25
2018-05-29T10:04:13.047Z,29.18
2018-05-29T10:05:17.552Z,29.26
2018-05-29T10:06:23.069Z,29.25
2018-05-29T10:07:28.596Z,29.25
2018-05-29T10:08:34.124Z,29.34
2018-05-29T10:09:39.643Z,29.34
2018-05-29T10:10:46.174Z,29.37
2018-05-29T10:11:50.680Z,29.40
2018-05-29T10:12:56.208Z,29.43
2018-05-29T10:14:01.744Z,29.47
2018-05-29T10:15:07.261Z,29.49
2018-05-29T10:16:12.778Z,29.49
2018-05-29T10:17:19.323Z,29.62
2018-05-29T10:18:23.814Z,29.59
2018-05-29T10:19:29.348Z,29.74
2018-05-29T10:20:34.872Z,29.71
2018-05-29T10:21:40.399Z,29.77
2018-05-29T10:22:45.917Z,29.74
2018-05-29T10:23:52.452Z,29.81
2018-05-29T10:24:56.953Z,29.86
2018-05-29T10:26:02.482Z,29.79
2018-05-29T10:27:08.014Z,29.84
2018-05-29T10:28:13.541Z,29.90
2018-05-29T10:29:19.062Z,29.90
2018-05-29T10:30:25.584Z,29.90
2018-05-29T10:31:30.091Z,29.96
2018-05-29T10:32:35.623Z,30.02
2018-05-29T10:33:41.140Z,30.00
2018-05-29T10:34:46.670Z,30.09
2018-05-29T10:35:52.182Z,30.07
2018-05-29T10:36:58.734Z,30.11
2018-05-29T10:38:03.228Z,30.16
2018-05-29T10:39:08.755Z,30.15
2018-05-29T10:40:14.296Z,30.29
2018-05-29T10:41:19.815Z,30.24
2018-05-29T10:42:25.330Z,30.30
2018-05-29T10:43:31.893Z,30.26
2018-05-29T10:44:36.399Z,30.27
2018-05-29T10:45:41.902Z,30.18
2018-05-29T10:46:47.486Z,30.29
2018-05-29T10:47:52.952Z,30.33
2018-05-29T10:48:58.481Z,30.38
2018-05-29T10:50:05.019Z,30.40
2018-05-29T10:51:09.511Z,30.49
2018-05-29T10:52:15.037Z,30.40
2018-05-29T10:53:20.569Z,30.45
2018-05-29T10:54:26.079Z,30.49
2018-05-29T10:55:31.612Z,30.49
2018-05-29T10:56:38.140Z,30.54
2018-05-29T10:57:42.678Z,30.54
2018-05-29T10:58:48.191Z,30.61
2018-05-29T10:59:53.703Z,30.65
2018-05-29T11:00:59.223Z,30.65
2018-05-29T11:02:04.752Z,30.67
2018-05-29T11:03:11.290Z,30.71
2018-05-29T11:04:15.800Z,30.72
2018-05-29T11:05:21.334Z,30.80
2018-05-29T11:06:26.847Z,30.78
2018-05-29T11:07:32.372Z,30.93
2018-05-29T11:08:37.904Z,30.94
2018-05-29T11:09:44.424Z,30.94
2018-05-29T11:10:48.947Z,31.02
2018-05-29T11:11:54.478Z,31.05
2018-05-29T11:12:59.983Z,30.99
2018-05-29T11:14:05.583Z,31.02
2018-05-29T11:15:11.080Z,31.02
2018-05-29T11:16:17.583Z,31.01
2018-05-29T11:17:22.092Z,31.09
2018-05-29T11:18:27.613Z,31.15
2018-05-29T11:19:33.141Z,31.13
2018-05-29T11:20:38.650Z,31.21
2018-05-29T11:21:44.184Z,31.24
2018-05-29T11:22:50.717Z,31.26
2018-05-29T11:23:55.230Z,31.12
2018-05-29T11:25:00.753Z,31.26
2018-05-29T11:26:06.276Z,31.26
2018-05-29T11:27:11.811Z,31.30
2018-05-29T11:28:17.357Z,31.30
2018-05-29T11:29:23.887Z,31.39
2018-05-29T11:30:28.377Z,31.33
2018-05-29T11:31:33.891Z,31.42
2018-05-29T11:32:39.423Z,31.38
2018-05-29T11:33:44.966Z,31.49
2018-05-29T11:34:50.473Z,31.49
2018-05-29T11:35:57.007Z,31.45
2018-05-29T11:37:01.517Z,31.58
2018-05-29T11:38:07.075Z,31.61
2018-05-29T11:39:12.596Z,31.57
2018-05-29T11:40:18.095Z,31.57
2018-05-29T11:41:23.613Z,31.62
2018-05-29T11:42:30.201Z,31.60
2018-05-29T11:43:34.699Z,31.61
2018-05-29T11:44:40.185Z,31.57
2018-05-29T11:45:45.711Z,31.62
2018-05-29T11:46:51.245Z,31.62
2018-05-29T11:47:56.764Z,31.60
2018-05-29T11:49:03.292Z,31.60
2018-05-29T11:50:07.822Z,31.68
2018-05-29T11:51:13.338Z,31.55
2018-05-29T11:52:18.857Z,31.62
2018-05-29T11:53:24.382Z,31.49
2018-05-29T11:54:29.918Z,31.50
2018-05-29T11:55:36.444Z,31.45
2018-05-29T11:56:40.955Z,31.43
2018-05-29T11:57:46.469Z,31.53
2018-05-29T11:58:52.008Z,31.46
2018-05-29T11:59:57.541Z,31.61
2018-05-29T12:01:03.049Z,31.61
2018-05-29T12:02:09.591Z,31.64
2018-05-29T12:03:14.097Z,31.79
2018-05-29T12:04:19.616Z,31.80
2018-05-29T12:05:25.144Z,31.76
2018-05-29T12:06:30.682Z,31.80
2018-05-29T12:07:36.250Z,31.82
2018-05-29T12:08:42.730Z,31.70
2018-05-29T12:09:47.263Z,31.61
2018-05-29T12:10:52.767Z,31.53
2018-05-29T12:11:58.365Z,31.54
2018-05-29T12:13:03.825Z,31.42
2018-05-29T12:14:09.399Z,31.36
2018-05-29T12:15:15.888Z,31.33
2018-05-29T12:16:20.415Z,31.31
2018-05-29T12:17:25.926Z,31.21
2018-05-29T12:18:31.441Z,31.26
2018-05-29T12:19:36.968Z,31.24
2018-05-29T12:20:42.492Z,31.23
2018-05-29T12:21:49.046Z,31.23
2018-05-29T12:22:53.539Z,31.21
2018-05-29T12:23:59.070Z,31.21
2018-05-29T12:25:04.588Z,31.24
2018-05-29T12:26:10.127Z,31.28
2018-05-29T12:27:15.636Z,31.23
2018-05-29T12:28:22.168Z,31.33
2018-05-29T12:29:26.691Z,31.31
2018-05-29T12:30:32.205Z,31.49
2018-05-29T12:31:37.733Z,31.49
2018-05-29T12:32:43.262Z,31.60
2018-05-29T12:33:48.797Z,31.73
2018-05-29T12:34:55.351Z,31.75
2018-05-29T12:35:59.833Z,31.75
2018-05-29T12:37:05.377Z,31.68
2018-05-29T12:38:10.893Z,31.58
2018-05-29T12:39:16.408Z,31.49
2018-05-29T12:40:21.943Z,31.46
2018-05-29T12:41:28.487Z,31.43
2018-05-29T12:42:33.034Z,31.33
2018-05-29T12:43:38.506Z,31.26
2018-05-29T12:44:44.069Z,31.30
2018-05-29T12:45:49.548Z,31.26
2018-05-29T12:46:55.075Z,31.27
2018-05-29T12:48:01.609Z,31.05
2018-05-29T12:49:06.123Z,31.08
2018-05-29T12:50:11.648Z,31.01
2018-05-29T12:51:17.179Z,30.94
2018-05-29T12:52:22.691Z,30.89
2018-05-29T12:53:28.224Z,30.75
2018-05-29T12:54:34.748Z,30.76
2018-05-29T12:55:39.272Z,30.68
2018-05-29T12:56:44.793Z,30.65
2018-05-29T12:57:50.338Z,30.53
2018-05-29T12:58:55.854Z,30.50
2018-05-29T13:00:01.386Z,30.49
2018-05-29T13:01:07.911Z,30.45
2018-05-29T13:02:12.403Z,30.37
2018-05-29T13:03:17.943Z,30.26
2018-05-29T13:04:23.457Z,30.23
2018-05-29T13:05:29.040Z,30.18
2018-05-29T13:06:34.503Z,30.15
2018-05-29T13:07:41.048Z,30.12
2018-05-29T13:08:45.572Z,29.97
2018-05-29T13:09:51.109Z,29.96
2018-05-29T13:10:56.599Z,29.92
2018-05-29T13:12:02.129Z,29.90
2018-05-29T13:13:07.650Z,29.87
2018-05-29T13:14:14.177Z,29.86
2018-05-29T13:15:18.710Z,29.74
2018-05-29T13:16:24.234Z,29.74
2018-05-29T13:17:29.742Z,29.65
2018-05-29T13:18:35.262Z,29.62
2018-05-29T13:19:40.783Z,29.56
2018-05-29T13:20:47.319Z,29.50
2018-05-29T13:21:51.849Z,29.41
2018-05-29T13:22:57.385Z,29.28
2018-05-29T13:24:02.898Z,29.33
2018-05-29T13:25:08.422Z,29.23
2018-05-29T13:26:13.951Z,29.19
2018-05-29T13:27:20.463Z,29.03
2018-05-29T13:28:24.982Z,29.00
2018-05-29T13:29:30.500Z,28.78
2018-05-29T13:30:36.027Z,28.66
2018-05-29T13:31:41.570Z,28.60
2018-05-29T13:32:47.073Z,28.50
2018-05-29T13:33:53.599Z,28.47
2018-05-29T13:34:58.143Z,28.40
2018-05-29T13:36:03.639Z,28.23
2018-05-29T13:37:09.161Z,28.14
2018-05-29T13:38:14.688Z,27.91
2018-05-29T13:39:20.203Z,27.91
2018-05-29T13:40:26.803Z,27.84
2018-05-29T13:41:31.292Z,27.76
2018-05-29T13:42:36.831Z,27.62
2018-05-29T13:43:42.287Z,27.53
2018-05-29T13:44:47.810Z,27.43
2018-05-29T13:45:53.347Z,27.38
2018-05-29T13:46:59.907Z,27.29
2018-05-29T13:48:04.418Z,27.20
2018-05-29T13:49:09.965Z,27.11
2018-05-29T13:50:15.444Z,27.10
2018-05-29T13:51:20.962Z,26.98
2018-05-29T13:52:26.481Z,26.81
2018-05-29T13:53:33.006Z,26.84
2018-05-29T13:54:37.511Z,26.80
2018-05-29T13:55:43.030Z,26.73
2018-05-29T13:56:48.575Z,26.72
2018-05-29T13:57:54.091Z,26.72
2018-05-29T13:58:59.613Z,26.64
2018-05-29T14:00:06.129Z,26.49
2018-05-29T14:01:10.661Z,26.52
2018-05-29T14:02:16.189Z,26.54
2018-05-29T14:03:21.718Z,26.39